sensor_id;sensor_type;location;lat;lon;timestamp;P1;durP1;ratioP1;P2;durP2;ratioP2
35418;SDS011;21525;41.240;16.500;2023-04-03T00:00:10;12.80;;;3.45;;
35418;SDS011;21525;41.240;16.500;2023-04-03T00:02:36;14.65;;;4.10;;
35418;SDS011;21525;41.240;16.500;2023-04-03T00:05:02;16.30;;;4.38;;
35418;SDS011;21525;41.240;16.500;2023-04-03T00:07:29;12.70;;;3.63;;
35418;SDS011;21525;41.240;16.500;2023-04-03T00:09:55;20.90;;;4.65;;
35418;SDS011;21525;41.240;16.500;2023-04-03T00:12:21;16.00;;;3.65;;
35418;SDS011;21525;41.240;16.500;2023-04-03T00:14:47;19.73;;;4.47;;
35418;SDS011;21525;41.240;16.500;2023-04-03T00:17:12;15.70;;;3.67;;
35418;SDS011;21525;41.240;16.500;2023-04-03T00:19:38;16.65;;;3.75;;
35418;SDS011;21525;41.240;16.500;2023-04-03T00:22:04;12.90;;;3.17;;
35418;SDS011;21525;41.240;16.500;2023-04-03T00:24:29;11.95;;;3.60;;
35418;SDS011;21525;41.240;16.500;2023-04-03T00:26:55;13.00;;;3.95;;
35418;SDS011;21525;41.240;16.500;2023-04-03T00:29:21;12.68;;;3.97;;
35418;SDS011;21525;41.240;16.500;2023-04-03T00:31:46;13.25;;;4.78;;
35418;SDS011;21525;41.240;16.500;2023-04-03T00:34:12;17.20;;;4.07;;
35418;SDS011;21525;41.240;16.500;2023-04-03T00:36:38;15.95;;;3.63;;
35418;SDS011;21525;41.240;16.500;2023-04-03T00:39:03;19.52;;;3.75;;
35418;SDS011;21525;41.240;16.500;2023-04-03T00:41:29;17.05;;;3.53;;
35418;SDS011;21525;41.240;16.500;2023-04-03T00:43:55;15.68;;;3.53;;
35418;SDS011;21525;41.240;16.500;2023-04-03T00:46:21;18.85;;;4.35;;
35418;SDS011;21525;41.240;16.500;2023-04-03T00:48:47;15.60;;;3.63;;
35418;SDS011;21525;41.240;16.500;2023-04-03T00:51:14;14.88;;;3.35;;
35418;SDS011;21525;41.240;16.500;2023-04-03T00:53:53;12.65;;;3.85;;
35418;SDS011;21525;41.240;16.500;2023-04-03T00:56:23;13.27;;;3.40;;
35418;SDS011;21525;41.240;16.500;2023-04-03T00:58:54;13.07;;;3.38;;
35418;SDS011;21525;41.240;16.500;2023-04-03T01:01:24;13.98;;;3.85;;
35418;SDS011;21525;41.240;16.500;2023-04-03T01:03:54;13.93;;;3.88;;
35418;SDS011;21525;41.240;16.500;2023-04-03T01:06:23;19.13;;;3.67;;
35418;SDS011;21525;41.240;16.500;2023-04-03T01:08:52;14.73;;;3.65;;
35418;SDS011;21525;41.240;16.500;2023-04-03T01:11:20;12.85;;;2.72;;
35418;SDS011;21525;41.240;16.500;2023-04-03T01:13:47;8.43;;;2.58;;
35418;SDS011;21525;41.240;16.500;2023-04-03T01:16:14;12.55;;;2.83;;
35418;SDS011;21525;41.240;16.500;2023-04-03T01:18:40;7.30;;;2.90;;
35418;SDS011;21525;41.240;16.500;2023-04-03T01:27:00;5.70;;;2.08;;
35418;SDS011;21525;41.240;16.500;2023-04-03T01:31:56;7.32;;;1.65;;
35418;SDS011;21525;41.240;16.500;2023-04-03T01:34:23;8.65;;;2.33;;
35418;SDS011;21525;41.240;16.500;2023-04-03T01:36:50;7.15;;;1.85;;
35418;SDS011;21525;41.240;16.500;2023-04-03T01:39:17;10.63;;;2.13;;
35418;SDS011;21525;41.240;16.500;2023-04-03T01:41:43;4.75;;;1.40;;
35418;SDS011;21525;41.240;16.500;2023-04-03T01:44:14;9.68;;;1.80;;
35418;SDS011;21525;41.240;16.500;2023-04-03T01:46:40;8.68;;;1.85;;
35418;SDS011;21525;41.240;16.500;2023-04-03T01:49:07;6.50;;;2.20;;
35418;SDS011;21525;41.240;16.500;2023-04-03T01:51:34;25.65;;;15.38;;
35418;SDS011;21525;41.240;16.500;2023-04-03T01:54:00;35.42;;;22.38;;
35418;SDS011;21525;41.240;16.500;2023-04-03T01:56:26;41.88;;;28.35;;
35418;SDS011;21525;41.240;16.500;2023-04-03T01:58:52;63.25;;;42.17;;
35418;SDS011;21525;41.240;16.500;2023-04-03T02:01:18;32.30;;;22.13;;
35418;SDS011;21525;41.240;16.500;2023-04-03T02:03:44;40.35;;;31.13;;
35418;SDS011;21525;41.240;16.500;2023-04-03T02:06:10;19.58;;;14.40;;
35418;SDS011;21525;41.240;16.500;2023-04-03T02:08:36;8.00;;;4.25;;
35418;SDS011;21525;41.240;16.500;2023-04-03T02:11:01;14.70;;;4.57;;
35418;SDS011;21525;41.240;16.500;2023-04-03T02:13:27;8.25;;;3.50;;
35418;SDS011;21525;41.240;16.500;2023-04-03T02:15:53;7.80;;;2.35;;
35418;SDS011;21525;41.240;16.500;2023-04-03T02:18:19;7.82;;;2.42;;
35418;SDS011;21525;41.240;16.500;2023-04-03T02:20:45;8.23;;;2.50;;
35418;SDS011;21525;41.240;16.500;2023-04-03T02:23:11;7.25;;;2.70;;
35418;SDS011;21525;41.240;16.500;2023-04-03T02:25:37;9.52;;;2.28;;
35418;SDS011;21525;41.240;16.500;2023-04-03T02:28:03;8.93;;;2.20;;
35418;SDS011;21525;41.240;16.500;2023-04-03T02:30:30;8.57;;;2.00;;
35418;SDS011;21525;41.240;16.500;2023-04-03T02:32:56;5.43;;;1.77;;
35418;SDS011;21525;41.240;16.500;2023-04-03T02:35:21;9.85;;;2.35;;
35418;SDS011;21525;41.240;16.500;2023-04-03T02:37:48;10.90;;;2.63;;
35418;SDS011;21525;41.240;16.500;2023-04-03T02:40:13;14.80;;;2.90;;
35418;SDS011;21525;41.240;16.500;2023-04-03T02:42:40;11.75;;;2.45;;
35418;SDS011;21525;41.240;16.500;2023-04-03T02:45:06;10.70;;;2.22;;
35418;SDS011;21525;41.240;16.500;2023-04-03T02:47:32;8.85;;;1.67;;
35418;SDS011;21525;41.240;16.500;2023-04-03T02:49:57;10.02;;;2.78;;
35418;SDS011;21525;41.240;16.500;2023-04-03T02:52:23;7.60;;;1.92;;
35418;SDS011;21525;41.240;16.500;2023-04-03T02:54:51;6.88;;;1.85;;
35418;SDS011;21525;41.240;16.500;2023-04-03T02:57:17;12.23;;;2.38;;
35418;SDS011;21525;41.240;16.500;2023-04-03T02:59:44;10.10;;;2.60;;
35418;SDS011;21525;41.240;16.500;2023-04-03T03:02:11;6.43;;;2.08;;
35418;SDS011;21525;41.240;16.500;2023-04-03T03:04:36;10.20;;;2.50;;
35418;SDS011;21525;41.240;16.500;2023-04-03T03:07:02;12.40;;;2.17;;
35418;SDS011;21525;41.240;16.500;2023-04-03T03:09:28;9.77;;;2.30;;
35418;SDS011;21525;41.240;16.500;2023-04-03T03:11:55;10.93;;;3.13;;
35418;SDS011;21525;41.240;16.500;2023-04-03T03:14:21;12.23;;;2.85;;
35418;SDS011;21525;41.240;16.500;2023-04-03T03:16:47;13.32;;;2.53;;
35418;SDS011;21525;41.240;16.500;2023-04-03T03:19:13;8.82;;;2.25;;
35418;SDS011;21525;41.240;16.500;2023-04-03T03:21:39;9.90;;;2.55;;
35418;SDS011;21525;41.240;16.500;2023-04-03T03:24:04;12.27;;;2.47;;
35418;SDS011;21525;41.240;16.500;2023-04-03T03:26:32;7.97;;;2.30;;
35418;SDS011;21525;41.240;16.500;2023-04-03T03:28:57;14.77;;;2.17;;
35418;SDS011;21525;41.240;16.500;2023-04-03T03:31:23;8.77;;;2.42;;
35418;SDS011;21525;41.240;16.500;2023-04-03T03:33:49;5.70;;;1.70;;
35418;SDS011;21525;41.240;16.500;2023-04-03T03:36:15;8.40;;;1.90;;
35418;SDS011;21525;41.240;16.500;2023-04-03T03:38:41;11.48;;;2.10;;
35418;SDS011;21525;41.240;16.500;2023-04-03T03:41:08;8.45;;;2.40;;
35418;SDS011;21525;41.240;16.500;2023-04-03T03:43:34;9.93;;;2.50;;
35418;SDS011;21525;41.240;16.500;2023-04-03T03:46:01;8.23;;;1.95;;
35418;SDS011;21525;41.240;16.500;2023-04-03T03:48:27;10.57;;;2.40;;
35418;SDS011;21525;41.240;16.500;2023-04-03T03:50:53;8.30;;;1.98;;
35418;SDS011;21525;41.240;16.500;2023-04-03T03:53:23;9.75;;;2.50;;
35418;SDS011;21525;41.240;16.500;2023-04-03T03:55:51;13.85;;;3.15;;
35418;SDS011;21525;41.240;16.500;2023-04-03T03:58:19;11.30;;;2.77;;
35418;SDS011;21525;41.240;16.500;2023-04-03T04:00:46;8.90;;;2.60;;
35418;SDS011;21525;41.240;16.500;2023-04-03T04:03:12;9.05;;;1.83;;
35418;SDS011;21525;41.240;16.500;2023-04-03T04:05:39;9.90;;;3.05;;
35418;SDS011;21525;41.240;16.500;2023-04-03T04:08:04;11.82;;;3.20;;
35418;SDS011;21525;41.240;16.500;2023-04-03T04:10:31;13.23;;;3.25;;
35418;SDS011;21525;41.240;16.500;2023-04-03T04:12:57;9.20;;;2.20;;
35418;SDS011;21525;41.240;16.500;2023-04-03T04:15:25;12.43;;;2.85;;
35418;SDS011;21525;41.240;16.500;2023-04-03T04:17:52;14.63;;;2.50;;
35418;SDS011;21525;41.240;16.500;2023-04-03T04:20:18;11.90;;;3.60;;
35418;SDS011;21525;41.240;16.500;2023-04-03T04:22:45;13.02;;;3.30;;
35418;SDS011;21525;41.240;16.500;2023-04-03T04:25:11;12.38;;;2.55;;
35418;SDS011;21525;41.240;16.500;2023-04-03T04:27:38;11.23;;;3.33;;
35418;SDS011;21525;41.240;16.500;2023-04-03T04:30:05;9.20;;;2.75;;
35418;SDS011;21525;41.240;16.500;2023-04-03T04:32:44;12.07;;;2.85;;
35418;SDS011;21525;41.240;16.500;2023-04-03T04:35:11;12.68;;;3.10;;
35418;SDS011;21525;41.240;16.500;2023-04-03T04:37:40;16.77;;;3.92;;
35418;SDS011;21525;41.240;16.500;2023-04-03T04:40:06;14.57;;;2.55;;
35418;SDS011;21525;41.240;16.500;2023-04-03T04:42:33;15.30;;;4.25;;
35418;SDS011;21525;41.240;16.500;2023-04-03T04:44:59;13.20;;;3.10;;
35418;SDS011;21525;41.240;16.500;2023-04-03T04:47:24;19.05;;;3.95;;
35418;SDS011;21525;41.240;16.500;2023-04-03T04:49:51;17.25;;;4.82;;
35418;SDS011;21525;41.240;16.500;2023-04-03T04:52:17;15.40;;;4.07;;
35418;SDS011;21525;41.240;16.500;2023-04-03T04:54:42;23.13;;;3.50;;
35418;SDS011;21525;41.240;16.500;2023-04-03T04:57:09;15.93;;;4.40;;
35418;SDS011;21525;41.240;16.500;2023-04-03T04:59:36;13.80;;;3.05;;
35418;SDS011;21525;41.240;16.500;2023-04-03T05:02:02;9.80;;;3.67;;
35418;SDS011;21525;41.240;16.500;2023-04-03T05:04:28;12.63;;;3.80;;
35418;SDS011;21525;41.240;16.500;2023-04-03T05:07:00;15.50;;;3.65;;
35418;SDS011;21525;41.240;16.500;2023-04-03T05:09:28;14.17;;;2.43;;
35418;SDS011;21525;41.240;16.500;2023-04-03T05:11:55;9.48;;;2.33;;
35418;SDS011;21525;41.240;16.500;2023-04-03T05:14:24;12.00;;;2.70;;
35418;SDS011;21525;41.240;16.500;2023-04-03T05:16:51;11.30;;;2.50;;
35418;SDS011;21525;41.240;16.500;2023-04-03T05:19:20;10.15;;;2.45;;
35418;SDS011;21525;41.240;16.500;2023-04-03T05:21:47;10.90;;;2.55;;
35418;SDS011;21525;41.240;16.500;2023-04-03T05:24:15;10.52;;;3.25;;
35418;SDS011;21525;41.240;16.500;2023-04-03T05:26:43;11.35;;;2.40;;
35418;SDS011;21525;41.240;16.500;2023-04-03T05:29:09;13.80;;;3.38;;
35418;SDS011;21525;41.240;16.500;2023-04-03T05:31:36;9.68;;;3.13;;
35418;SDS011;21525;41.240;16.500;2023-04-03T05:34:02;12.38;;;2.45;;
35418;SDS011;21525;41.240;16.500;2023-04-03T05:36:30;8.82;;;2.00;;
35418;SDS011;21525;41.240;16.500;2023-04-03T05:39:01;11.23;;;2.50;;
35418;SDS011;21525;41.240;16.500;2023-04-03T05:41:27;9.23;;;2.53;;
35418;SDS011;21525;41.240;16.500;2023-04-03T05:43:53;9.50;;;2.20;;
35418;SDS011;21525;41.240;16.500;2023-04-03T05:46:20;13.52;;;2.95;;
35418;SDS011;21525;41.240;16.500;2023-04-03T05:48:51;8.82;;;2.60;;
35418;SDS011;21525;41.240;16.500;2023-04-03T05:53:55;12.13;;;2.88;;
35418;SDS011;21525;41.240;16.500;2023-04-03T05:56:31;15.18;;;3.58;;
35418;SDS011;21525;41.240;16.500;2023-04-03T05:58:57;9.38;;;3.72;;
35418;SDS011;21525;41.240;16.500;2023-04-03T06:01:23;11.77;;;3.30;;
35418;SDS011;21525;41.240;16.500;2023-04-03T06:03:49;12.88;;;3.53;;
35418;SDS011;21525;41.240;16.500;2023-04-03T06:06:15;11.48;;;2.92;;
35418;SDS011;21525;41.240;16.500;2023-04-03T06:08:41;8.77;;;2.75;;
35418;SDS011;21525;41.240;16.500;2023-04-03T06:11:06;16.90;;;3.35;;
35418;SDS011;21525;41.240;16.500;2023-04-03T06:13:34;9.70;;;2.28;;
35418;SDS011;21525;41.240;16.500;2023-04-03T06:16:00;11.50;;;2.60;;
35418;SDS011;21525;41.240;16.500;2023-04-03T06:18:27;10.27;;;3.08;;
35418;SDS011;21525;41.240;16.500;2023-04-03T06:20:54;10.88;;;3.45;;
35418;SDS011;21525;41.240;16.500;2023-04-03T06:23:20;14.68;;;2.97;;
35418;SDS011;21525;41.240;16.500;2023-04-03T06:25:46;14.32;;;3.95;;
35418;SDS011;21525;41.240;16.500;2023-04-03T06:28:12;13.23;;;3.33;;
35418;SDS011;21525;41.240;16.500;2023-04-03T06:30:37;20.48;;;4.10;;
35418;SDS011;21525;41.240;16.500;2023-04-03T06:33:03;16.17;;;4.18;;
35418;SDS011;21525;41.240;16.500;2023-04-03T06:35:29;13.52;;;3.20;;
35418;SDS011;21525;41.240;16.500;2023-04-03T06:37:55;15.75;;;3.65;;
35418;SDS011;21525;41.240;16.500;2023-04-03T06:40:23;10.95;;;3.33;;
35418;SDS011;21525;41.240;16.500;2023-04-03T06:42:50;12.98;;;3.20;;
35418;SDS011;21525;41.240;16.500;2023-04-03T06:45:17;8.57;;;2.97;;
35418;SDS011;21525;41.240;16.500;2023-04-03T06:47:43;13.50;;;3.35;;
35418;SDS011;21525;41.240;16.500;2023-04-03T06:50:10;12.27;;;3.40;;
35418;SDS011;21525;41.240;16.500;2023-04-03T06:52:37;13.57;;;3.00;;
35418;SDS011;21525;41.240;16.500;2023-04-03T06:55:03;11.50;;;3.35;;
35418;SDS011;21525;41.240;16.500;2023-04-03T06:57:30;15.25;;;3.35;;
35418;SDS011;21525;41.240;16.500;2023-04-03T06:59:55;16.60;;;3.25;;
35418;SDS011;21525;41.240;16.500;2023-04-03T07:02:21;15.40;;;4.35;;
35418;SDS011;21525;41.240;16.500;2023-04-03T07:04:47;21.80;;;4.30;;
35418;SDS011;21525;41.240;16.500;2023-04-03T07:07:13;12.48;;;3.28;;
35418;SDS011;21525;41.240;16.500;2023-04-03T07:09:39;22.23;;;12.40;;
35418;SDS011;21525;41.240;16.500;2023-04-03T07:12:05;14.85;;;3.17;;
35418;SDS011;21525;41.240;16.500;2023-04-03T07:14:31;13.73;;;3.92;;
35418;SDS011;21525;41.240;16.500;2023-04-03T07:16:57;19.05;;;4.65;;
35418;SDS011;21525;41.240;16.500;2023-04-03T07:19:22;14.27;;;3.78;;
35418;SDS011;21525;41.240;16.500;2023-04-03T07:21:49;15.82;;;4.63;;
35418;SDS011;21525;41.240;16.500;2023-04-03T07:24:15;18.38;;;4.50;;
35418;SDS011;21525;41.240;16.500;2023-04-03T07:26:41;14.23;;;4.28;;
35418;SDS011;21525;41.240;16.500;2023-04-03T07:29:07;16.23;;;4.20;;
35418;SDS011;21525;41.240;16.500;2023-04-03T07:31:32;18.75;;;5.05;;
35418;SDS011;21525;41.240;16.500;2023-04-03T07:33:59;15.75;;;4.10;;
35418;SDS011;21525;41.240;16.500;2023-04-03T07:36:25;14.10;;;3.97;;
35418;SDS011;21525;41.240;16.500;2023-04-03T07:38:51;12.85;;;3.80;;
35418;SDS011;21525;41.240;16.500;2023-04-03T07:41:17;17.60;;;4.93;;
35418;SDS011;21525;41.240;16.500;2023-04-03T07:43:47;17.42;;;4.57;;
35418;SDS011;21525;41.240;16.500;2023-04-03T07:46:15;16.75;;;6.13;;
35418;SDS011;21525;41.240;16.500;2023-04-03T07:48:42;22.17;;;6.93;;
35418;SDS011;21525;41.240;16.500;2023-04-03T07:51:09;12.70;;;4.20;;
35418;SDS011;21525;41.240;16.500;2023-04-03T07:53:34;18.52;;;4.65;;
35418;SDS011;21525;41.240;16.500;2023-04-03T07:56:01;28.10;;;4.72;;
35418;SDS011;21525;41.240;16.500;2023-04-03T07:58:28;25.83;;;5.63;;
35418;SDS011;21525;41.240;16.500;2023-04-03T08:00:54;16.88;;;5.38;;
35418;SDS011;21525;41.240;16.500;2023-04-03T08:03:19;14.23;;;4.32;;
35418;SDS011;21525;41.240;16.500;2023-04-03T08:05:46;15.68;;;6.05;;
35418;SDS011;21525;41.240;16.500;2023-04-03T08:08:14;20.42;;;6.38;;
35418;SDS011;21525;41.240;16.500;2023-04-03T08:10:42;25.58;;;9.60;;
35418;SDS011;21525;41.240;16.500;2023-04-03T08:13:08;25.65;;;9.38;;
35418;SDS011;21525;41.240;16.500;2023-04-03T08:15:34;23.35;;;10.00;;
35418;SDS011;21525;41.240;16.500;2023-04-03T08:18:01;27.58;;;9.98;;
35418;SDS011;21525;41.240;16.500;2023-04-03T08:20:27;18.98;;;6.82;;
35418;SDS011;21525;41.240;16.500;2023-04-03T08:22:53;35.13;;;11.82;;
35418;SDS011;21525;41.240;16.500;2023-04-03T08:25:19;22.30;;;7.22;;
35418;SDS011;21525;41.240;16.500;2023-04-03T08:27:45;24.77;;;10.02;;
35418;SDS011;21525;41.240;16.500;2023-04-03T08:30:12;28.50;;;9.38;;
35418;SDS011;21525;41.240;16.500;2023-04-03T08:32:38;27.83;;;8.65;;
35418;SDS011;21525;41.240;16.500;2023-04-03T08:35:07;19.13;;;6.22;;
35418;SDS011;21525;41.240;16.500;2023-04-03T08:37:34;30.05;;;8.02;;
35418;SDS011;21525;41.240;16.500;2023-04-03T08:40:02;20.98;;;7.50;;
35418;SDS011;21525;41.240;16.500;2023-04-03T08:45:05;18.95;;;6.07;;
35418;SDS011;21525;41.240;16.500;2023-04-03T08:48:42;16.92;;;4.40;;
35418;SDS011;21525;41.240;16.500;2023-04-03T08:50:50;20.48;;;4.97;;
35418;SDS011;21525;41.240;16.500;2023-04-03T08:53:20;22.33;;;5.43;;
35418;SDS011;21525;41.240;16.500;2023-04-03T08:55:52;14.35;;;4.18;;
35418;SDS011;21525;41.240;16.500;2023-04-03T08:58:21;13.40;;;4.57;;
35418;SDS011;21525;41.240;16.500;2023-04-03T09:00:54;21.35;;;4.50;;
35418;SDS011;21525;41.240;16.500;2023-04-03T09:03:23;17.58;;;4.20;;
35418;SDS011;21525;41.240;16.500;2023-04-03T09:11:17;15.07;;;3.75;;
35418;SDS011;21525;41.240;16.500;2023-04-03T09:14:07;13.38;;;4.55;;
35418;SDS011;21525;41.240;16.500;2023-04-03T09:16:49;17.58;;;3.75;;
35418;SDS011;21525;41.240;16.500;2023-04-03T09:19:34;14.65;;;4.03;;
35418;SDS011;21525;41.240;16.500;2023-04-03T09:22:16;17.23;;;5.55;;
35418;SDS011;21525;41.240;16.500;2023-04-03T09:24:45;13.70;;;5.33;;
35418;SDS011;21525;41.240;16.500;2023-04-03T09:27:15;16.55;;;4.13;;
35418;SDS011;21525;41.240;16.500;2023-04-03T09:29:42;14.70;;;3.97;;
35418;SDS011;21525;41.240;16.500;2023-04-03T09:32:18;21.58;;;4.93;;
35418;SDS011;21525;41.240;16.500;2023-04-03T09:34:50;17.05;;;5.55;;
35418;SDS011;21525;41.240;16.500;2023-04-03T09:40:04;22.10;;;5.07;;
35418;SDS011;21525;41.240;16.500;2023-04-03T09:42:30;17.60;;;4.00;;
35418;SDS011;21525;41.240;16.500;2023-04-03T09:45:02;21.23;;;4.72;;
35418;SDS011;21525;41.240;16.500;2023-04-03T09:47:30;21.13;;;4.57;;
35418;SDS011;21525;41.240;16.500;2023-04-03T09:52:43;24.77;;;5.43;;
35418;SDS011;21525;41.240;16.500;2023-04-03T09:55:20;15.90;;;4.20;;
35418;SDS011;21525;41.240;16.500;2023-04-03T09:57:58;16.25;;;4.35;;
35418;SDS011;21525;41.240;16.500;2023-04-03T10:00:36;18.85;;;4.97;;
35418;SDS011;21525;41.240;16.500;2023-04-03T10:03:04;17.75;;;4.97;;
35418;SDS011;21525;41.240;16.500;2023-04-03T10:10:43;19.60;;;3.77;;
35418;SDS011;21525;41.240;16.500;2023-04-03T10:15:51;20.48;;;4.78;;
35418;SDS011;21525;41.240;16.500;2023-04-03T10:18:29;21.23;;;6.05;;
35418;SDS011;21525;41.240;16.500;2023-04-03T10:24:10;17.83;;;5.40;;
35418;SDS011;21525;41.240;16.500;2023-04-03T10:48:07;16.80;;;4.82;;
35418;SDS011;21525;41.240;16.500;2023-04-03T10:58:32;22.13;;;6.60;;
35418;SDS011;21525;41.240;16.500;2023-04-03T11:01:04;31.15;;;6.93;;
35418;SDS011;21525;41.240;16.500;2023-04-03T11:03:36;19.88;;;6.43;;
35418;SDS011;21525;41.240;16.500;2023-04-03T11:06:10;30.80;;;7.50;;
35418;SDS011;21525;41.240;16.500;2023-04-03T11:08:39;21.67;;;6.70;;
35418;SDS011;21525;41.240;16.500;2023-04-03T11:11:19;28.23;;;7.35;;
35418;SDS011;21525;41.240;16.500;2023-04-03T11:16:26;19.50;;;5.67;;
35418;SDS011;21525;41.240;16.500;2023-04-03T11:18:54;29.17;;;8.45;;
35418;SDS011;21525;41.240;16.500;2023-04-03T11:21:24;21.27;;;7.03;;
35418;SDS011;21525;41.240;16.500;2023-04-03T11:23:59;21.80;;;7.15;;
35418;SDS011;21525;41.240;16.500;2023-04-03T11:26:31;27.75;;;8.35;;
35418;SDS011;21525;41.240;16.500;2023-04-03T11:29:03;19.52;;;6.38;;
35418;SDS011;21525;41.240;16.500;2023-04-03T11:40:06;23.40;;;6.32;;
35418;SDS011;21525;41.240;16.500;2023-04-03T11:43:07;29.88;;;6.82;;
35418;SDS011;21525;41.240;16.500;2023-04-03T11:45:53;23.10;;;6.32;;
35418;SDS011;21525;41.240;16.500;2023-04-03T11:51:02;33.00;;;8.38;;
35418;SDS011;21525;41.240;16.500;2023-04-03T11:53:53;16.98;;;5.45;;
35418;SDS011;21525;41.240;16.500;2023-04-03T12:09:26;24.75;;;6.47;;
35418;SDS011;21525;41.240;16.500;2023-04-03T12:11:54;24.30;;;8.55;;
35418;SDS011;21525;41.240;16.500;2023-04-03T12:14:22;17.60;;;6.65;;
35418;SDS011;21525;41.240;16.500;2023-04-03T12:16:50;21.70;;;6.50;;
35418;SDS011;21525;41.240;16.500;2023-04-03T12:24:26;24.95;;;7.75;;
35418;SDS011;21525;41.240;16.500;2023-04-03T12:40:02;26.67;;;6.55;;
35418;SDS011;21525;41.240;16.500;2023-04-03T12:42:42;22.13;;;6.30;;
35418;SDS011;21525;41.240;16.500;2023-04-03T12:45:14;25.15;;;7.18;;
35418;SDS011;21525;41.240;16.500;2023-04-03T12:47:45;25.40;;;6.28;;
35418;SDS011;21525;41.240;16.500;2023-04-03T12:50:23;24.00;;;6.60;;
35418;SDS011;21525;41.240;16.500;2023-04-03T12:55:31;26.30;;;7.20;;
35418;SDS011;21525;41.240;16.500;2023-04-03T12:58:12;17.63;;;6.57;;
35418;SDS011;21525;41.240;16.500;2023-04-03T13:00:42;22.30;;;6.80;;
35418;SDS011;21525;41.240;16.500;2023-04-03T13:03:19;17.30;;;5.25;;
35418;SDS011;21525;41.240;16.500;2023-04-03T13:05:49;26.10;;;5.63;;
35418;SDS011;21525;41.240;16.500;2023-04-03T13:08:16;23.52;;;6.45;;
35418;SDS011;21525;41.240;16.500;2023-04-03T13:10:55;27.20;;;6.95;;
35418;SDS011;21525;41.240;16.500;2023-04-03T13:13:24;24.00;;;7.63;;
35418;SDS011;21525;41.240;16.500;2023-04-03T13:15:52;23.55;;;8.35;;
35418;SDS011;21525;41.240;16.500;2023-04-03T13:20:58;27.17;;;11.68;;
35418;SDS011;21525;41.240;16.500;2023-04-03T13:23:33;22.35;;;8.25;;
35418;SDS011;21525;41.240;16.500;2023-04-03T13:26:04;23.13;;;8.07;;
35418;SDS011;21525;41.240;16.500;2023-04-03T13:28:31;20.35;;;7.05;;
35418;SDS011;21525;41.240;16.500;2023-04-03T13:33:32;27.27;;;8.25;;
35418;SDS011;21525;41.240;16.500;2023-04-03T13:38:31;29.75;;;7.78;;
35418;SDS011;21525;41.240;16.500;2023-04-03T13:41:00;26.92;;;11.85;;
35418;SDS011;21525;41.240;16.500;2023-04-03T13:43:32;22.35;;;6.65;;
35418;SDS011;21525;41.240;16.500;2023-04-03T13:48:40;34.33;;;7.97;;
35418;SDS011;21525;41.240;16.500;2023-04-03T13:56:18;22.92;;;6.40;;
35418;SDS011;21525;41.240;16.500;2023-04-03T13:58:53;20.48;;;5.65;;
35418;SDS011;21525;41.240;16.500;2023-04-03T14:01:25;26.42;;;7.30;;
35418;SDS011;21525;41.240;16.500;2023-04-03T14:03:59;30.90;;;7.70;;
35418;SDS011;21525;41.240;16.500;2023-04-03T14:06:26;20.15;;;5.70;;
35418;SDS011;21525;41.240;16.500;2023-04-03T14:08:52;24.42;;;6.60;;
35418;SDS011;21525;41.240;16.500;2023-04-03T14:11:22;25.98;;;6.32;;
35418;SDS011;21525;41.240;16.500;2023-04-03T14:13:52;24.27;;;5.75;;
35418;SDS011;21525;41.240;16.500;2023-04-03T14:16:20;19.27;;;5.53;;
35418;SDS011;21525;41.240;16.500;2023-04-03T14:18:48;26.55;;;6.55;;
35418;SDS011;21525;41.240;16.500;2023-04-03T14:21:17;20.60;;;7.28;;
35418;SDS011;21525;41.240;16.500;2023-04-03T14:23:44;21.13;;;7.25;;
35418;SDS011;21525;41.240;16.500;2023-04-03T14:26:14;24.77;;;6.35;;
35418;SDS011;21525;41.240;16.500;2023-04-03T14:28:43;17.33;;;4.80;;
35418;SDS011;21525;41.240;16.500;2023-04-03T14:31:12;23.10;;;5.28;;
35418;SDS011;21525;41.240;16.500;2023-04-03T14:33:40;23.25;;;5.32;;
35418;SDS011;21525;41.240;16.500;2023-04-03T14:36:13;20.90;;;6.45;;
35418;SDS011;21525;41.240;16.500;2023-04-03T14:38:40;20.55;;;7.22;;
35418;SDS011;21525;41.240;16.500;2023-04-03T14:41:07;27.85;;;5.82;;
35418;SDS011;21525;41.240;16.500;2023-04-03T14:43:32;24.13;;;5.50;;
35418;SDS011;21525;41.240;16.500;2023-04-03T14:45:58;20.73;;;6.18;;
35418;SDS011;21525;41.240;16.500;2023-04-03T14:48:25;23.52;;;5.03;;
35418;SDS011;21525;41.240;16.500;2023-04-03T14:50:53;24.60;;;4.87;;
35418;SDS011;21525;41.240;16.500;2023-04-03T14:53:19;22.05;;;5.32;;
35418;SDS011;21525;41.240;16.500;2023-04-03T14:55:50;18.52;;;5.10;;
35418;SDS011;21525;41.240;16.500;2023-04-03T14:58:17;19.05;;;4.90;;
35418;SDS011;21525;41.240;16.500;2023-04-03T15:00:45;14.82;;;4.47;;
35418;SDS011;21525;41.240;16.500;2023-04-03T15:03:12;17.65;;;5.45;;
35418;SDS011;21525;41.240;16.500;2023-04-03T15:05:41;20.88;;;5.35;;
35418;SDS011;21525;41.240;16.500;2023-04-03T15:08:23;23.83;;;5.20;;
35418;SDS011;21525;41.240;16.500;2023-04-03T15:10:51;27.65;;;7.25;;
35418;SDS011;21525;41.240;16.500;2023-04-03T15:13:18;28.08;;;6.03;;
35418;SDS011;21525;41.240;16.500;2023-04-03T15:15:44;27.30;;;5.60;;
35418;SDS011;21525;41.240;16.500;2023-04-03T15:18:14;20.20;;;4.70;;
35418;SDS011;21525;41.240;16.500;2023-04-03T15:20:43;21.88;;;5.13;;
35418;SDS011;21525;41.240;16.500;2023-04-03T15:23:11;19.55;;;5.88;;
35418;SDS011;21525;41.240;16.500;2023-04-03T15:25:38;22.37;;;6.60;;
35418;SDS011;21525;41.240;16.500;2023-04-03T15:28:05;19.50;;;6.13;;
35418;SDS011;21525;41.240;16.500;2023-04-03T15:30:32;23.30;;;7.18;;
35418;SDS011;21525;41.240;16.500;2023-04-03T15:32:57;21.63;;;5.45;;
35418;SDS011;21525;41.240;16.500;2023-04-03T15:35:23;23.67;;;5.10;;
35418;SDS011;21525;41.240;16.500;2023-04-03T15:37:49;19.60;;;5.38;;
35418;SDS011;21525;41.240;16.500;2023-04-03T15:40:16;19.95;;;5.18;;
35418;SDS011;21525;41.240;16.500;2023-04-03T15:42:42;22.63;;;5.50;;
35418;SDS011;21525;41.240;16.500;2023-04-03T15:45:08;21.50;;;5.30;;
35418;SDS011;21525;41.240;16.500;2023-04-03T15:47:34;20.30;;;6.80;;
35418;SDS011;21525;41.240;16.500;2023-04-03T15:50:00;23.52;;;4.63;;
35418;SDS011;21525;41.240;16.500;2023-04-03T15:52:26;18.83;;;4.15;;
35418;SDS011;21525;41.240;16.500;2023-04-03T15:54:52;21.85;;;5.00;;
35418;SDS011;21525;41.240;16.500;2023-04-03T15:57:17;25.42;;;5.15;;
35418;SDS011;21525;41.240;16.500;2023-04-03T15:59:43;22.05;;;4.50;;
35418;SDS011;21525;41.240;16.500;2023-04-03T16:02:09;25.55;;;5.60;;
35418;SDS011;21525;41.240;16.500;2023-04-03T16:04:38;23.73;;;5.35;;
35418;SDS011;21525;41.240;16.500;2023-04-03T16:07:04;19.95;;;4.47;;
35418;SDS011;21525;41.240;16.500;2023-04-03T16:09:30;23.52;;;5.72;;
35418;SDS011;21525;41.240;16.500;2023-04-03T16:11:57;19.13;;;4.77;;
35418;SDS011;21525;41.240;16.500;2023-04-03T16:14:23;18.58;;;4.25;;
35418;SDS011;21525;41.240;16.500;2023-04-03T16:16:49;25.42;;;5.82;;
35418;SDS011;21525;41.240;16.500;2023-04-03T16:19:15;21.38;;;4.30;;
35418;SDS011;21525;41.240;16.500;2023-04-03T16:21:41;31.27;;;6.47;;
35418;SDS011;21525;41.240;16.500;2023-04-03T16:24:07;22.58;;;4.90;;
35418;SDS011;21525;41.240;16.500;2023-04-03T16:26:34;22.75;;;4.80;;
35418;SDS011;21525;41.240;16.500;2023-04-03T16:28:59;22.88;;;5.63;;
35418;SDS011;21525;41.240;16.500;2023-04-03T16:31:25;29.58;;;5.57;;
35418;SDS011;21525;41.240;16.500;2023-04-03T16:33:51;28.33;;;6.07;;
35418;SDS011;21525;41.240;16.500;2023-04-03T16:36:17;20.58;;;3.92;;